createdAt,value
2017-08-01T00:00:29.077Z,940.5
2017-08-01T00:01:37.230Z,940.5
2017-08-01T00:02:45.253Z,940.5
2017-08-01T00:03:53.342Z,940.5
2017-08-01T00:05:01.428Z,940.5
2017-08-01T00:06:09.521Z,940.4
2017-08-01T00:07:17.815Z,940.5
2017-08-01T00:08:25.698Z,940.5
2017-08-01T00:09:33.789Z,940.5
2017-08-01T00:10:41.997Z,940.5
2017-08-01T00:11:49.966Z,940.5
2017-08-01T00:12:58.177Z,940.5
2017-08-01T00:14:06.145Z,940.5
2017-08-01T00:15:14.235Z,940.5
2017-08-01T00:16:22.327Z,940.5
2017-08-01T00:17:30.415Z,940.5
2017-08-01T00:18:38.558Z,940.5
2017-08-01T00:19:46.601Z,940.5
2017-08-01T00:20:54.679Z,940.5
2017-08-01T00:22:02.770Z,940.5
2017-08-01T00:23:10.859Z,940.5
2017-08-01T00:24:19.069Z,940.6
2017-08-01T00:25:27.036Z,940.6
2017-08-01T00:26:35.182Z,940.6
2017-08-01T00:27:43.218Z,940.6
2017-08-01T00:28:51.309Z,940.6
2017-08-01T00:29:59.574Z,940.7
2017-08-01T00:31:07.481Z,940.7
2017-08-01T00:32:15.571Z,940.7
2017-08-01T00:33:23.661Z,940.7
2017-08-01T00:34:31.749Z,940.7
2017-08-01T00:35:39.959Z,940.7
2017-08-01T00:36:47.979Z,940.7
2017-08-01T00:37:56.028Z,940.7
2017-08-01T00:39:04.103Z,940.7
2017-08-01T00:40:12.194Z,940.7
2017-08-01T00:41:20.339Z,940.7
2017-08-01T00:42:28.430Z,940.7
2017-08-01T00:43:36.460Z,940.7
2017-08-01T00:44:44.562Z,940.7
2017-08-01T00:45:52.641Z,940.7
2017-08-01T00:47:01.004Z,940.7
2017-08-01T00:48:08.819Z,940.7
2017-08-01T00:49:16.907Z,940.7
2017-08-01T00:50:24.996Z,940.7
2017-08-01T00:51:33.085Z,940.8
2017-08-01T00:52:41.232Z,940.8
2017-08-01T00:53:49.265Z,940.8
2017-08-01T00:54:57.354Z,940.9
2017-08-01T00:56:05.445Z,940.9
2017-08-01T00:57:13.532Z,940.9
2017-08-01T00:58:21.749Z,940.9
2017-08-01T00:59:29.710Z,940.9
2017-08-01T01:00:37.799Z,940.9
2017-08-01T01:01:45.889Z,940.9
2017-08-01T01:02:53.981Z,940.9
2017-08-01T01:04:02.125Z,940.8
2017-08-01T01:05:10.161Z,940.8
2017-08-01T01:06:18.247Z,940.9
2017-08-01T01:07:26.337Z,940.9
2017-08-01T01:08:34.426Z,940.9
2017-08-01T01:09:42.566Z,940.9
2017-08-01T01:10:50.798Z,940.9
2017-08-01T01:11:58.690Z,940.9
2017-08-01T01:13:06.781Z,940.9
2017-08-01T01:14:14.932Z,940.9
2017-08-01T01:15:23.077Z,940.9
2017-08-01T01:16:31.117Z,940.9
2017-08-01T01:17:39.139Z,940.9
2017-08-01T01:18:47.250Z,940.9
2017-08-01T01:19:55.314Z,940.9
2017-08-01T01:21:03.459Z,940.9
2017-08-01T01:22:11.494Z,940.9
2017-08-01T01:23:19.582Z,940.9
2017-08-01T01:24:27.670Z,940.9
2017-08-01T01:25:35.761Z,940.9
2017-08-01T01:26:43.906Z,940.9
2017-08-01T01:27:51.940Z,940.9
2017-08-01T01:29:00.033Z,940.9
2017-08-01T01:30:08.175Z,940.9
2017-08-01T01:31:16.208Z,940.9
2017-08-01T01:32:24.418Z,940.8
2017-08-01T01:33:32.493Z,940.9
2017-08-01T01:34:40.477Z,940.9
2017-08-01T01:35:48.565Z,940.9
2017-08-01T01:36:56.654Z,940.9
2017-08-01T01:38:04.799Z,940.9
2017-08-01T01:39:12.838Z,940.9
2017-08-01T01:40:20.935Z,940.9
2017-08-01T01:41:29.010Z,940.9
2017-08-01T01:42:37.099Z,940.9
2017-08-01T01:43:45.245Z,940.9
2017-08-01T01:44:53.278Z,940.9
2017-08-01T01:46:01.489Z,940.9
2017-08-01T01:47:09.458Z,940.9
2017-08-01T01:48:17.543Z,941.0
2017-08-01T01:49:25.691Z,941.0
2017-08-01T01:50:33.819Z,941.0
2017-08-01T01:51:41.823Z,941.0
2017-08-01T01:52:49.902Z,941.0
2017-08-01T01:53:57.991Z,941.0
2017-08-01T01:55:06.138Z,941.0
2017-08-01T01:56:14.173Z,941.0
2017-08-01T01:57:22.260Z,941.0
2017-08-01T01:58:30.352Z,941.0
2017-08-01T01:59:38.443Z,941.0
2017-08-01T02:00:46.588Z,941.1
2017-08-01T02:01:54.747Z,941.0
2017-08-01T02:03:02.724Z,941.1
2017-08-01T02:04:10.815Z,941.1
2017-08-01T02:05:18.909Z,941.0
2017-08-01T02:06:27.054Z,941.1
2017-08-01T02:07:35.231Z,941.1
2017-08-01T02:08:43.175Z,941.1
2017-08-01T02:09:51.265Z,941.1
2017-08-01T02:10:59.356Z,941.1
2017-08-01T02:12:07.500Z,941.1
2017-08-01T02:13:15.596Z,941.2
2017-08-01T02:14:23.688Z,941.2
2017-08-01T02:15:31.711Z,941.2
2017-08-01T02:16:39.802Z,941.2
2017-08-01T02:17:48.009Z,941.2
2017-08-01T02:18:55.978Z,941.2
2017-08-01T02:20:04.070Z,941.2
2017-08-01T02:21:12.157Z,941.2
2017-08-01T02:22:20.243Z,941.2
2017-08-01T02:23:28.390Z,941.2
2017-08-01T02:24:36.606Z,941.2
2017-08-01T02:25:44.519Z,941.2
2017-08-01T02:26:52.617Z,941.2
2017-08-01T02:28:00.698Z,941.2
2017-08-01T02:29:08.906Z,941.2
2017-08-01T02:30:16.951Z,941.2
2017-08-01T02:31:25.030Z,941.3
2017-08-01T02:32:33.067Z,941.2
2017-08-01T02:33:41.199Z,941.2
2017-08-01T02:34:49.290Z,941.2
2017-08-01T02:35:57.323Z,941.2
2017-08-01T02:37:05.415Z,941.2
2017-08-01T02:38:13.499Z,941.2
2017-08-01T02:39:21.588Z,941.2
2017-08-01T02:40:29.733Z,941.2
2017-08-01T02:41:37.923Z,941.2
2017-08-01T02:42:45.856Z,941.2
2017-08-01T02:43:53.952Z,941.2
2017-08-01T02:45:02.037Z,941.2
2017-08-01T02:46:10.244Z,941.2
2017-08-01T02:47:18.215Z,941.2
2017-08-01T02:48:26.301Z,941.2
2017-08-01T02:49:34.445Z,941.2
2017-08-01T02:50:42.478Z,941.2
2017-08-01T02:51:50.687Z,941.2
2017-08-01T02:52:58.661Z,941.2
2017-08-01T02:54:06.744Z,941.2
2017-08-01T02:55:14.833Z,941.2
2017-08-01T02:56:22.923Z,941.2
2017-08-01T02:57:31.079Z,941.2
2017-08-01T02:58:39.191Z,941.2
2017-08-01T02:59:47.190Z,941.3
2017-08-01T03:00:55.300Z,941.2
2017-08-01T03:02:03.367Z,941.2
2017-08-01T03:03:11.512Z,941.2
2017-08-01T03:04:19.546Z,941.2
2017-08-01T03:05:27.755Z,941.2
2017-08-01T03:06:35.723Z,941.2
2017-08-01T03:07:43.811Z,941.2
2017-08-01T03:08:51.979Z,941.3
2017-08-01T03:10:00.123Z,941.3
2017-08-01T03:11:08.076Z,941.3
2017-08-01T03:12:16.167Z,941.3
2017-08-01T03:13:24.255Z,941.3
2017-08-01T03:14:32.466Z,941.4
2017-08-01T03:15:40.469Z,941.4
2017-08-01T03:16:48.523Z,941.4
2017-08-01T03:17:56.613Z,941.4
2017-08-01T03:19:04.705Z,941.4
2017-08-01T03:20:12.846Z,941.4
2017-08-01T03:21:21.003Z,941.4
2017-08-01T03:22:28.968Z,941.4
2017-08-01T03:23:37.057Z,941.4
2017-08-01T03:24:45.154Z,941.4
2017-08-01T03:25:53.362Z,941.4
2017-08-01T03:27:01.358Z,941.4
2017-08-01T03:28:09.420Z,941.4
2017-08-01T03:29:17.507Z,941.4
2017-08-01T03:30:25.596Z,941.4
2017-08-01T03:31:33.742Z,941.3
2017-08-01T03:32:41.791Z,941.3
2017-08-01T03:33:49.864Z,941.4
2017-08-01T03:34:57.958Z,941.4
2017-08-01T03:36:06.050Z,941.4
2017-08-01T03:37:14.258Z,941.4
2017-08-01T03:38:22.225Z,941.3
2017-08-01T03:39:30.312Z,941.3
2017-08-01T03:40:38.402Z,941.3
2017-08-01T03:41:46.491Z,941.3
2017-08-01T03:42:54.652Z,941.3
2017-08-01T03:44:02.860Z,941.4
2017-08-01T03:45:10.758Z,941.3
2017-08-01T03:46:18.846Z,941.4
2017-08-01T03:47:26.933Z,941.4
2017-08-01T03:48:35.144Z,941.3
2017-08-01T03:49:43.196Z,941.3
2017-08-01T03:50:51.201Z,941.4
2017-08-01T03:51:59.293Z,941.4
2017-08-01T03:53:07.436Z,941.3
2017-08-01T03:54:15.590Z,941.3
2017-08-01T03:55:23.559Z,941.3
2017-08-01T03:56:31.644Z,941.3
2017-08-01T03:57:39.734Z,941.3
2017-08-01T03:58:47.822Z,941.3
2017-08-01T03:59:55.969Z,941.2
2017-08-01T04:01:04.165Z,941.3
2017-08-01T04:02:12.090Z,941.2
2017-08-01T04:03:20.179Z,941.3
2017-08-01T04:04:28.267Z,941.3
2017-08-01T04:05:36.476Z,941.3
2017-08-01T04:06:44.485Z,941.3
2017-08-01T04:07:52.531Z,941.3
2017-08-01T04:09:00.678Z,941.3
2017-08-01T04:10:08.711Z,941.4
2017-08-01T04:11:16.856Z,941.3
2017-08-01T04:12:24.888Z,941.3
2017-08-01T04:13:32.980Z,941.4
2017-08-01T04:14:41.075Z,941.4
2017-08-01T04:15:49.158Z,941.4
2017-08-01T04:16:57.367Z,941.4
2017-08-01T04:18:05.361Z,941.4
2017-08-01T04:19:13.421Z,941.4
2017-08-01T04:20:21.511Z,941.4
2017-08-01T04:21:29.600Z,941.4
2017-08-01T04:22:37.746Z,941.4
2017-08-01T04:23:45.864Z,941.4
2017-08-01T04:24:53.925Z,941.4
2017-08-01T04:26:01.956Z,941.4
2017-08-01T04:27:10.046Z,941.4
2017-08-01T04:28:18.271Z,941.4
2017-08-01T04:29:26.226Z,941.4
2017-08-01T04:30:34.313Z,941.4
2017-08-01T04:31:42.401Z,941.4
2017-08-01T04:32:50.489Z,941.4
2017-08-01T04:33:58.634Z,941.4
2017-08-01T04:35:07.369Z,941.4
2017-08-01T04:36:14.754Z,941.4
2017-08-01T04:37:22.846Z,941.5
2017-08-01T04:38:30.933Z,941.5
2017-08-01T04:39:39.103Z,941.5
2017-08-01T04:40:47.350Z,941.5
2017-08-01T04:41:55.355Z,941.5
2017-08-01T04:58:56.602Z,941.8
2017-08-01T05:00:04.624Z,941.9
2017-08-01T05:01:12.835Z,941.8
2017-08-01T05:02:20.801Z,941.9
2017-08-01T05:03:28.896Z,941.9
2017-08-01T05:04:37.101Z,941.9
2017-08-01T05:05:45.173Z,941.9
2017-08-01T05:06:53.163Z,941.9
2017-08-01T05:08:01.247Z,941.9
2017-08-01T05:09:09.396Z,941.9
2017-08-01T05:10:17.577Z,941.9
2017-08-01T05:11:25.513Z,941.9
2017-08-01T05:12:34.291Z,942.0
2017-08-01T05:13:41.688Z,941.9
2017-08-01T05:14:49.935Z,941.9
2017-08-01T05:15:57.987Z,941.9
2017-08-01T05:17:05.954Z,942.0
2017-08-01T05:18:14.051Z,942.0
2017-08-01T05:19:22.297Z,942.0
2017-08-01T05:20:30.382Z,942.0
2017-08-01T05:21:38.364Z,942.0
2017-08-01T05:22:46.397Z,942.0
2017-08-01T05:23:54.680Z,942.1
2017-08-01T05:25:02.607Z,942.1
2017-08-01T05:26:10.663Z,942.1
2017-08-01T05:27:18.873Z,942.1
2017-08-01T05:28:26.839Z,942.2
2017-08-01T05:29:34.957Z,942.1
2017-08-01T05:30:43.073Z,942.2
2017-08-01T05:31:51.106Z,942.2
2017-08-01T05:32:59.315Z,942.2
2017-08-01T05:34:07.366Z,942.3
2017-08-01T05:35:15.373Z,942.3
2017-08-01T05:36:23.462Z,942.3
2017-08-01T05:37:31.555Z,942.4
2017-08-01T05:38:39.759Z,942.4
2017-08-01T05:39:47.731Z,942.4
2017-08-01T05:40:55.815Z,942.5
2017-08-01T05:42:03.905Z,942.5
2017-08-01T05:43:11.993Z,942.5
2017-08-01T05:44:20.139Z,942.5
2017-08-01T05:45:28.173Z,942.5
2017-08-01T05:46:36.317Z,942.5
2017-08-01T05:47:44.350Z,942.5
2017-08-01T05:48:52.440Z,942.5
2017-08-01T05:50:00.644Z,942.5
2017-08-01T05:51:08.612Z,942.5
2017-08-01T05:52:16.705Z,942.5
2017-08-01T05:53:24.789Z,942.5
2017-08-01T05:54:32.879Z,942.5
2017-08-01T05:55:41.055Z,942.5
2017-08-01T05:56:49.070Z,942.4
2017-08-01T05:57:57.158Z,942.4
2017-08-01T05:59:05.246Z,942.4
2017-08-01T06:00:13.336Z,942.5
2017-08-01T06:01:21.581Z,942.5
2017-08-01T06:02:29.574Z,942.5
2017-08-01T06:03:37.602Z,942.5
2017-08-01T06:04:45.689Z,942.5
2017-08-01T06:05:53.780Z,942.4
2017-08-01T06:07:01.924Z,942.5
2017-08-01T06:08:09.956Z,942.4
2017-08-01T06:09:18.044Z,942.5
2017-08-01T06:10:26.228Z,942.5
2017-08-01T06:11:34.222Z,942.4
2017-08-01T06:12:42.434Z,942.5
2017-08-01T06:13:50.398Z,942.4
2017-08-01T06:14:58.556Z,942.4
2017-08-01T06:16:06.575Z,942.4
2017-08-01T06:17:14.663Z,942.4
2017-08-01T06:18:22.809Z,942.4
2017-08-01T06:19:30.891Z,942.4
2017-08-01T06:20:38.934Z,942.4
2017-08-01T06:21:47.025Z,942.4
2017-08-01T06:22:55.111Z,942.4
2017-08-01T06:24:03.464Z,942.4
2017-08-01T06:25:11.287Z,942.4
2017-08-01T06:26:19.376Z,942.4
2017-08-01T06:27:27.464Z,942.4
2017-08-01T06:28:35.665Z,942.4
2017-08-01T06:29:43.762Z,942.4
2017-08-01T06:30:51.733Z,942.5
2017-08-01T06:31:59.820Z,942.4
2017-08-01T06:33:07.916Z,942.4
2017-08-01T06:34:16.052Z,942.4
2017-08-01T06:35:24.141Z,942.4
2017-08-01T06:36:32.172Z,942.4
2017-08-01T06:37:40.377Z,942.4
2017-08-01T06:38:48.352Z,942.4
2017-08-01T06:39:56.443Z,942.4
2017-08-01T06:41:04.583Z,942.3
2017-08-01T06:42:12.617Z,942.4
2017-08-01T06:43:20.705Z,942.4
2017-08-01T06:44:28.793Z,942.4
2017-08-01T06:45:36.880Z,942.4
2017-08-01T06:46:45.097Z,942.4
2017-08-01T06:47:53.058Z,942.4
2017-08-01T06:49:01.146Z,942.4
2017-08-01T06:50:09.354Z,942.4
2017-08-01T06:51:17.506Z,942.4
2017-08-01T06:52:25.473Z,942.4
2017-08-01T06:53:33.501Z,942.3
2017-08-01T06:54:41.590Z,942.3
2017-08-01T06:55:49.749Z,942.3
2017-08-01T06:56:57.765Z,942.3
2017-08-01T06:58:05.912Z,942.3
2017-08-01T06:59:13.943Z,942.3
2017-08-01T07:00:22.032Z,942.2
2017-08-01T07:01:30.121Z,942.2
2017-08-01T07:02:38.210Z,942.2
2017-08-01T07:03:46.417Z,942.2
2017-08-01T07:04:54.515Z,942.2
2017-08-01T07:06:02.612Z,942.2
2017-08-01T07:07:10.562Z,942.2
2017-08-01T07:08:18.653Z,942.2
2017-08-01T07:09:26.922Z,942.1
2017-08-01T07:10:34.831Z,942.1
2017-08-01T07:11:42.918Z,942.1
2017-08-01T07:12:51.008Z,942.1
2017-08-01T07:13:59.125Z,942.0
2017-08-01T07:15:07.246Z,942.1
2017-08-01T07:16:15.273Z,942.1
2017-08-01T07:17:23.362Z,942.1
2017-08-01T07:18:31.449Z,942.2
2017-08-01T07:19:39.546Z,942.2
2017-08-01T07:20:47.748Z,942.2
2017-08-01T07:21:55.772Z,942.2
2017-08-01T07:23:03.806Z,942.2
2017-08-01T07:24:11.893Z,942.2
2017-08-01T07:25:19.982Z,942.2
2017-08-01T07:26:28.128Z,942.2
2017-08-01T07:27:36.162Z,942.2
2017-08-01T07:28:44.293Z,942.2
2017-08-01T07:29:52.336Z,942.2
2017-08-01T07:31:00.432Z,942.2
2017-08-01T07:32:08.637Z,942.2
2017-08-01T07:33:16.634Z,942.3
2017-08-01T07:34:24.729Z,942.3
2017-08-01T07:35:32.780Z,942.3
2017-08-01T07:36:40.871Z,942.3
2017-08-01T07:37:49.014Z,942.3
2017-08-01T07:38:57.051Z,942.4
2017-08-01T07:40:05.205Z,942.4
2017-08-01T07:41:13.229Z,942.4
2017-08-01T07:42:21.315Z,942.4
2017-08-01T07:43:29.522Z,942.4
2017-08-01T07:44:37.491Z,942.4
2017-08-01T07:45:45.577Z,942.4
2017-08-01T07:46:53.667Z,942.5
2017-08-01T07:48:01.764Z,942.4
2017-08-01T07:49:09.906Z,942.5
2017-08-01T07:50:17.945Z,942.5
2017-08-01T07:51:26.028Z,942.6
2017-08-01T07:52:34.117Z,942.5
2017-08-01T07:53:42.325Z,942.5
2017-08-01T07:54:50.353Z,942.6
2017-08-01T07:55:58.382Z,942.6
2017-08-01T07:57:06.471Z,942.6
2017-08-01T07:58:14.560Z,942.6
2017-08-01T07:59:22.855Z,942.6
2017-08-01T08:00:30.799Z,942.6
2017-08-01T08:01:38.834Z,942.6
2017-08-01T08:02:46.919Z,942.7
2017-08-01T08:03:55.019Z,942.6
2017-08-01T08:05:03.222Z,942.6
2017-08-01T08:06:11.307Z,942.7
2017-08-01T08:07:19.277Z,942.7
2017-08-01T08:08:27.366Z,942.7
2017-08-01T08:09:35.618Z,942.6
2017-08-01T08:10:43.544Z,942.6
2017-08-01T08:11:51.689Z,942.6
2017-08-01T08:12:59.720Z,942.6
2017-08-01T08:14:07.811Z,942.6
2017-08-01T08:15:15.915Z,942.6
2017-08-01T08:16:24.009Z,942.7
2017-08-01T08:17:32.327Z,942.6
2017-08-01T08:18:40.219Z,942.6
2017-08-01T08:19:48.270Z,942.7
2017-08-01T08:20:56.360Z,942.6
2017-08-01T08:22:04.450Z,942.7
2017-08-01T08:23:12.688Z,942.6
2017-08-01T08:24:20.628Z,942.5
2017-08-01T08:25:28.775Z,942.5
2017-08-01T08:26:36.806Z,942.6
2017-08-01T08:27:44.901Z,942.6
2017-08-01T08:28:53.107Z,942.6
2017-08-01T08:30:01.077Z,942.6
2017-08-01T08:31:09.166Z,942.5
2017-08-01T08:32:17.256Z,942.6
2017-08-01T08:33:25.346Z,942.5
2017-08-01T08:34:33.493Z,942.5
2017-08-01T08:35:41.526Z,942.5
2017-08-01T08:36:49.718Z,942.5
2017-08-01T08:37:57.703Z,942.5
2017-08-01T08:39:05.792Z,942.5
2017-08-01T08:40:14.002Z,942.4
2017-08-01T08:41:22.031Z,942.4
2017-08-01T08:42:30.060Z,942.4
2017-08-01T08:43:38.152Z,942.4
2017-08-01T08:44:46.241Z,942.4
2017-08-01T08:45:54.465Z,942.4
2017-08-01T08:47:02.419Z,942.3
2017-08-01T08:48:10.508Z,942.3
2017-08-01T08:49:18.597Z,942.3
2017-08-01T08:50:26.690Z,942.3
2017-08-01T08:51:34.899Z,942.3
2017-08-01T08:52:42.868Z,942.3
2017-08-01T08:53:50.958Z,942.3
2017-08-01T08:54:59.180Z,942.3
2017-08-01T08:56:07.315Z,942.3
2017-08-01T08:57:15.345Z,942.3
2017-08-01T08:58:23.312Z,942.2
2017-08-01T08:59:31.515Z,942.2
2017-08-01T09:00:39.492Z,942.3
2017-08-01T09:01:47.584Z,942.2
2017-08-01T09:02:55.792Z,942.3
2017-08-01T09:04:03.763Z,942.4
2017-08-01T09:05:11.853Z,942.3
2017-08-01T09:06:19.940Z,942.3
2017-08-01T09:07:28.043Z,942.4
2017-08-01T09:08:36.352Z,942.4
2017-08-01T09:09:44.220Z,942.4
2017-08-01T09:10:52.311Z,942.4
2017-08-01T09:12:00.400Z,942.4
2017-08-01T09:13:08.547Z,942.3
2017-08-01T09:14:16.698Z,942.4
2017-08-01T09:15:24.681Z,942.4
2017-08-01T09:16:32.770Z,942.5
2017-08-01T09:17:40.893Z,942.5
2017-08-01T09:18:48.956Z,942.5
2017-08-01T09:19:57.099Z,942.4
2017-08-01T09:21:05.129Z,942.4
2017-08-01T09:22:13.221Z,942.4
2017-08-01T09:23:21.308Z,942.5
2017-08-01T09:24:29.400Z,942.5
2017-08-01T09:25:37.548Z,942.5
2017-08-01T09:26:45.701Z,942.5
2017-08-01T09:27:53.669Z,942.5
2017-08-01T09:29:01.879Z,942.5
2017-08-01T09:30:09.849Z,942.4
2017-08-01T09:31:17.993Z,942.5
2017-08-01T09:32:26.025Z,942.5
2017-08-01T09:33:34.117Z,942.5
2017-08-01T09:34:42.217Z,942.5
2017-08-01T09:35:50.295Z,942.4
2017-08-01T09:36:58.505Z,942.4
2017-08-01T09:38:06.476Z,942.4
2017-08-01T09:39:14.567Z,942.4
2017-08-01T09:40:22.704Z,942.4
2017-08-01T09:41:30.744Z,942.4
2017-08-01T09:42:38.886Z,942.4
2017-08-01T09:43:46.922Z,942.3
2017-08-01T09:44:55.307Z,942.4
2017-08-01T09:46:03.102Z,942.4
2017-08-01T09:47:11.215Z,942.4
2017-08-01T09:48:19.344Z,942.4
2017-08-01T09:49:27.398Z,942.4
2017-08-01T09:50:35.460Z,942.4
2017-08-01T09:51:43.551Z,942.3
2017-08-01T09:52:51.639Z,942.3
2017-08-01T09:53:59.858Z,942.2
2017-08-01T09:55:07.825Z,942.3
2017-08-01T09:56:15.912Z,942.3
2017-08-01T09:57:24.000Z,942.3
2017-08-01T09:58:32.091Z,942.3
2017-08-01T09:59:40.237Z,942.3
2017-08-01T10:00:48.390Z,942.3
2017-08-01T10:01:56.359Z,942.3
2017-08-01T10:03:04.548Z,942.3
2017-08-01T10:04:12.653Z,942.3
2017-08-01T10:05:20.685Z,942.3
2017-08-01T10:06:28.720Z,942.3
2017-08-01T10:07:36.994Z,942.3
2017-08-01T10:08:44.897Z,942.2
2017-08-01T10:09:52.989Z,942.2
2017-08-01T10:11:01.133Z,942.2
2017-08-01T10:12:09.167Z,942.2
2017-08-01T10:13:17.263Z,942.2
2017-08-01T10:14:25.347Z,942.1
2017-08-01T10:15:33.435Z,942.0
2017-08-01T10:16:41.646Z,942.0
2017-08-01T10:17:49.615Z,942.0
2017-08-01T10:18:57.704Z,941.9
2017-08-01T10:20:05.795Z,941.9
2017-08-01T10:21:13.894Z,941.9
2017-08-01T10:22:22.105Z,941.9
2017-08-01T10:23:30.073Z,941.9
2017-08-01T10:24:38.164Z,941.9
2017-08-01T10:25:46.436Z,942.0
2017-08-01T10:26:54.381Z,941.9
2017-08-01T10:28:02.560Z,942.0
2017-08-01T10:29:10.526Z,942.0
2017-08-01T10:30:18.617Z,942.0
2017-08-01T10:31:26.706Z,942.0
2017-08-01T10:32:34.850Z,942.0
2017-08-01T10:33:43.006Z,942.1
2017-08-01T10:34:51.136Z,942.1
2017-08-01T10:35:59.064Z,942.1
2017-08-01T10:37:07.155Z,942.1
2017-08-01T10:38:15.247Z,942.1
2017-08-01T10:39:23.545Z,942.1
2017-08-01T10:40:31.423Z,942.1
2017-08-01T10:41:39.513Z,942.0
2017-08-01T10:42:47.605Z,942.0
2017-08-01T10:43:55.695Z,942.0
2017-08-01T10:45:03.907Z,942.0
2017-08-01T10:46:11.877Z,941.9
2017-08-01T10:47:19.965Z,942.0
2017-08-01T10:48:28.112Z,942.0
2017-08-01T10:49:36.220Z,942.0
2017-08-01T10:50:44.356Z,942.0
2017-08-01T10:51:52.325Z,942.0
2017-08-01T10:53:00.414Z,942.1
2017-08-01T10:54:08.560Z,942.1
2017-08-01T10:55:16.594Z,942.1
2017-08-01T10:56:24.807Z,942.1
2017-08-01T10:57:32.775Z,942.1
2017-08-01T10:58:40.903Z,942.1
2017-08-01T10:59:48.957Z,942.1
2017-08-01T11:00:57.055Z,942.0
2017-08-01T11:02:05.256Z,942.0
2017-08-01T11:03:13.224Z,941.9
2017-08-01T11:04:21.436Z,941.9
2017-08-01T11:05:29.406Z,941.9
2017-08-01T11:06:37.506Z,941.8
2017-08-01T11:07:45.651Z,941.8
2017-08-01T11:08:53.684Z,941.8
2017-08-01T11:10:01.793Z,941.8
2017-08-01T11:11:09.885Z,941.8
2017-08-01T11:12:18.011Z,941.7
2017-08-01T11:13:26.184Z,941.7
2017-08-01T11:14:34.163Z,941.7
2017-08-01T11:15:42.252Z,941.6
2017-08-01T11:16:50.354Z,941.6
2017-08-01T11:17:58.434Z,941.6
2017-08-01T11:19:06.579Z,941.5
2017-08-01T11:20:14.743Z,941.5
2017-08-01T11:21:22.709Z,941.5
2017-08-01T11:22:30.801Z,941.5
2017-08-01T11:23:38.895Z,941.5
2017-08-01T11:24:47.038Z,941.5
2017-08-01T11:25:55.072Z,941.4
2017-08-01T11:27:03.163Z,941.4
2017-08-01T11:28:11.254Z,941.4
2017-08-01T11:29:19.344Z,941.4
2017-08-01T11:30:27.615Z,941.4
2017-08-01T11:31:35.521Z,941.5
2017-08-01T11:32:43.612Z,941.4
2017-08-01T11:33:51.703Z,941.4
2017-08-01T11:34:59.937Z,941.4
2017-08-01T11:36:07.945Z,941.4
2017-08-01T11:37:15.977Z,941.4
2017-08-01T11:38:24.067Z,941.4
2017-08-01T11:39:32.273Z,941.4
2017-08-01T11:40:40.248Z,941.4
2017-08-01T11:41:48.453Z,941.4
2017-08-01T11:42:56.586Z,941.5
2017-08-01T11:44:04.516Z,941.4
2017-08-01T11:45:12.604Z,941.3
2017-08-01T11:46:20.725Z,941.3
2017-08-01T11:47:28.978Z,941.4
2017-08-01T11:48:36.878Z,941.4
2017-08-01T11:49:44.968Z,941.4
2017-08-01T11:50:53.056Z,941.4
2017-08-01T11:52:01.267Z,941.4
2017-08-01T11:53:09.293Z,941.4
2017-08-01T11:54:17.327Z,941.4
2017-08-01T11:55:25.418Z,941.4
2017-08-01T11:56:33.607Z,941.4
2017-08-01T11:57:41.637Z,941.3
2017-08-01T11:58:49.749Z,941.3
2017-08-01T11:59:57.778Z,941.3
2017-08-01T12:01:05.963Z,941.3
2017-08-01T12:02:13.974Z,941.3
2017-08-01T12:03:22.050Z,941.3
2017-08-01T12:04:30.197Z,941.2
2017-08-01T12:05:38.410Z,941.3
2017-08-01T12:06:46.341Z,941.3
2017-08-01T12:07:54.541Z,941.3
2017-08-01T12:09:02.504Z,941.4
2017-08-01T12:10:10.833Z,941.5
2017-08-01T12:11:18.699Z,941.5
2017-08-01T12:12:26.792Z,941.6
2017-08-01T12:13:34.883Z,941.6
2017-08-01T12:14:42.971Z,941.6
2017-08-01T12:15:51.244Z,941.7
2017-08-01T12:16:59.150Z,941.7
2017-08-01T12:18:07.244Z,941.7
2017-08-01T12:19:15.333Z,941.7
2017-08-01T12:20:23.475Z,941.7
2017-08-01T12:21:31.569Z,941.8
2017-08-01T12:22:39.605Z,941.8
2017-08-01T12:23:47.838Z,941.9
2017-08-01T12:24:55.796Z,941.9
2017-08-01T12:26:03.886Z,941.9
2017-08-01T12:27:12.032Z,941.8
2017-08-01T12:28:20.070Z,941.8
2017-08-01T12:29:28.157Z,941.8
2017-08-01T12:30:36.252Z,941.8
2017-08-01T12:31:44.340Z,941.6
2017-08-01T12:32:52.548Z,941.6
2017-08-01T12:34:00.517Z,941.6
2017-08-01T12:35:08.609Z,941.6
2017-08-01T12:36:16.700Z,941.6
2017-08-01T12:37:24.812Z,941.5
2017-08-01T12:38:33.003Z,941.5
2017-08-01T12:39:41.027Z,941.5
2017-08-01T12:40:49.067Z,941.5
2017-08-01T12:41:57.313Z,941.5
2017-08-01T12:43:05.268Z,941.5
2017-08-01T12:44:13.393Z,941.5
2017-08-01T12:45:21.426Z,941.5
2017-08-01T12:46:29.529Z,941.5
2017-08-01T12:47:37.618Z,941.5
2017-08-01T12:48:45.708Z,941.5
2017-08-01T12:49:53.921Z,941.5
2017-08-01T12:51:01.903Z,941.6
2017-08-01T12:52:09.988Z,941.5
2017-08-01T12:53:18.080Z,941.5
2017-08-01T12:54:26.171Z,941.6
2017-08-01T12:55:34.380Z,941.6
2017-08-01T12:56:42.399Z,941.5
2017-08-01T12:57:50.441Z,941.6
2017-08-01T12:58:58.533Z,941.6
2017-08-01T13:00:06.622Z,941.6
2017-08-01T13:01:14.959Z,941.5
2017-08-01T13:02:22.805Z,941.5
2017-08-01T13:03:30.893Z,941.5
2017-08-01T13:04:38.985Z,941.4
2017-08-01T13:05:47.075Z,941.4
2017-08-01T13:06:55.222Z,941.4
2017-08-01T13:08:03.277Z,941.3
2017-08-01T13:09:11.498Z,941.2
2017-08-01T13:10:19.509Z,941.2
2017-08-01T13:11:27.672Z,941.3
2017-08-01T13:12:35.697Z,941.2
2017-08-01T13:13:43.735Z,941.2
2017-08-01T13:14:51.822Z,941.2
2017-08-01T13:15:59.914Z,941.2
2017-08-01T13:17:08.005Z,941.2
2017-08-01T13:18:16.149Z,941.1
2017-08-01T13:19:24.185Z,941.1
2017-08-01T13:20:32.273Z,941.1
2017-08-01T13:21:40.364Z,941.1
2017-08-01T13:22:48.466Z,941.1
2017-08-01T13:23:56.666Z,941.1
2017-08-01T13:25:04.636Z,941.1
2017-08-01T13:26:12.726Z,941.1
2017-08-01T13:27:20.875Z,941.0
2017-08-01T13:28:28.924Z,941.0
2017-08-01T13:29:37.119Z,941.0
2017-08-01T13:30:45.088Z,941.0
2017-08-01T13:31:53.179Z,941.0
2017-08-01T13:33:01.272Z,940.9
2017-08-01T13:34:09.361Z,941.0
2017-08-01T13:35:17.509Z,941.0
2017-08-01T13:36:25.553Z,941.0
2017-08-01T13:37:33.658Z,940.9
2017-08-01T13:38:41.749Z,941.0
2017-08-01T13:39:49.838Z,941.0
2017-08-01T13:40:57.988Z,941.1
2017-08-01T13:42:06.022Z,941.1
2017-08-01T13:43:14.233Z,941.1
2017-08-01T13:44:22.200Z,941.2
2017-08-01T13:45:30.292Z,941.2
2017-08-01T13:46:38.448Z,941.2
2017-08-01T13:47:46.495Z,941.2
2017-08-01T13:48:54.581Z,941.3
2017-08-01T13:50:02.800Z,941.2
2017-08-01T13:51:10.768Z,941.2
2017-08-01T13:52:18.973Z,941.2
2017-08-01T13:53:26.959Z,941.3
2017-08-01T13:54:35.260Z,941.3
2017-08-01T13:55:43.152Z,941.3
2017-08-01T13:56:51.243Z,941.3
2017-08-01T13:57:59.390Z,941.3
2017-08-01T13:59:07.626Z,941.3
2017-08-01T14:00:15.524Z,941.3
2017-08-01T14:01:23.618Z,941.4
2017-08-01T14:02:31.706Z,941.3
2017-08-01T14:03:39.851Z,941.3
2017-08-01T14:04:47.887Z,941.3
2017-08-01T14:05:55.977Z,941.3
2017-08-01T14:07:04.067Z,941.3
2017-08-01T14:08:12.157Z,941.2
2017-08-01T14:09:20.311Z,941.3
2017-08-01T14:10:28.338Z,941.3
2017-08-01T14:11:36.430Z,941.3
2017-08-01T14:12:44.694Z,941.2
2017-08-01T14:13:52.610Z,941.2
2017-08-01T14:15:00.930Z,941.2
2017-08-01T14:16:08.792Z,941.1
2017-08-01T14:17:16.881Z,941.1
2017-08-01T14:18:25.129Z,941.1
2017-08-01T14:19:33.071Z,941.1
2017-08-01T14:20:41.208Z,941.1
2017-08-01T14:21:49.244Z,941.1
2017-08-01T14:22:57.365Z,941.1
2017-08-01T14:24:05.450Z,941.0
2017-08-01T14:25:13.515Z,941.0
2017-08-01T14:26:21.725Z,940.9
2017-08-01T14:27:29.697Z,940.9
2017-08-01T14:28:37.788Z,941.0
2017-08-01T14:29:45.878Z,940.9
2017-08-01T14:30:54.092Z,941.0
2017-08-01T14:32:02.114Z,941.0
2017-08-01T14:33:10.149Z,941.1
2017-08-01T14:34:18.239Z,941.0
2017-08-01T14:35:26.334Z,941.0
2017-08-01T14:36:34.498Z,941.0
2017-08-01T14:37:42.568Z,941.1
2017-08-01T14:38:50.603Z,941.0
2017-08-01T14:39:58.694Z,941.1
2017-08-01T14:41:06.783Z,941.1
2017-08-01T14:42:14.874Z,941.1
2017-08-01T14:43:23.089Z,941.1
2017-08-01T14:44:31.252Z,941.1
2017-08-01T14:45:39.146Z,941.1
2017-08-01T14:46:47.293Z,941.1
2017-08-01T14:47:55.328Z,941.1
2017-08-01T14:49:03.540Z,941.1
2017-08-01T14:50:11.512Z,941.2
2017-08-01T14:51:19.604Z,941.2
2017-08-01T14:52:27.694Z,941.3